createdAt,value
2022-12-31T00:00:09.005Z,96316.00
2022-12-31T00:02:36.183Z,96327.41
2022-12-31T00:05:04.501Z,96323.34
2022-12-31T00:09:57.938Z,96320.19
2022-12-31T00:12:25.567Z,96333.00
2022-12-31T00:14:52.390Z,96326.28
2022-12-31T00:17:19.134Z,96339.22
2022-12-31T00:19:46.139Z,96330.75
2022-12-31T00:22:12.731Z,96324.75
2022-12-31T00:24:39.351Z,96319.63
2022-12-31T00:27:06.702Z,96329.06
2022-12-31T00:29:33.260Z,96330.47
2022-12-31T00:32:00.211Z,96328.41
2022-12-31T00:34:26.799Z,96331.06
2022-12-31T00:36:53.605Z,96330.78
2022-12-31T00:39:20.361Z,96323.28
2022-12-31T00:41:47.000Z,96324.34
2022-12-31T00:44:14.338Z,96322.81
2022-12-31T00:49:07.055Z,96331.19
2022-12-31T00:51:33.835Z,96335.94
2022-12-31T00:54:00.982Z,96330.22
2022-12-31T00:56:30.103Z,96340.78
2022-12-31T00:58:58.249Z,96329.78
2022-12-31T01:01:30.683Z,96341.03
2022-12-31T01:04:05.171Z,96344.78
2022-12-31T01:06:32.247Z,96340.16
2022-12-31T01:08:59.555Z,96354.59
2022-12-31T01:11:29.446Z,96350.00
2022-12-31T01:14:02.041Z,96339.31
2022-12-31T01:16:50.630Z,96338.22
2022-12-31T01:19:27.236Z,96354.88
2022-12-31T01:21:54.475Z,96361.03
2022-12-31T01:24:21.541Z,96350.19
2022-12-31T01:26:49.303Z,96353.81
2022-12-31T01:29:16.990Z,96363.53
2022-12-31T01:31:43.822Z,96392.66
2022-12-31T01:34:10.628Z,96387.94
2022-12-31T01:36:38.689Z,96390.44
2022-12-31T01:39:07.539Z,96389.75
2022-12-31T01:41:39.078Z,96390.28
2022-12-31T01:44:11.343Z,96380.44
2022-12-31T01:46:50.041Z,96382.44
2022-12-31T01:49:30.089Z,96387.72
2022-12-31T01:52:07.416Z,96388.53
2022-12-31T01:54:39.666Z,96389.69
2022-12-31T01:57:07.907Z,96400.81
2022-12-31T01:59:34.611Z,96381.34
2022-12-31T02:02:01.887Z,96388.50
2022-12-31T02:04:29.279Z,96383.06
2022-12-31T02:07:00.381Z,96398.94
2022-12-31T02:09:27.192Z,96388.22
2022-12-31T02:11:53.953Z,96396.72
2022-12-31T02:14:25.662Z,96388.25
2022-12-31T02:17:01.348Z,96399.84
2022-12-31T02:19:42.980Z,96406.50
2022-12-31T02:22:25.432Z,96414.88
2022-12-31T02:24:58.412Z,96413.91
2022-12-31T02:28:02.415Z,96429.47
2022-12-31T02:30:32.525Z,96432.03
2022-12-31T02:33:23.072Z,96424.09
2022-12-31T02:35:59.826Z,96425.78
2022-12-31T02:38:41.805Z,96412.84
2022-12-31T02:41:33.299Z,96422.16
2022-12-31T02:43:59.923Z,96414.91
2022-12-31T02:46:44.278Z,96414.06
2022-12-31T02:49:16.137Z,96424.50
2022-12-31T02:52:01.598Z,96435.25
2022-12-31T02:54:44.114Z,96445.28
2022-12-31T02:57:21.353Z,96433.59
2022-12-31T03:00:16.197Z,96409.78
2022-12-31T03:02:46.402Z,96424.69
2022-12-31T03:05:14.435Z,96418.00
2022-12-31T03:07:42.000Z,96411.88
2022-12-31T03:10:09.661Z,96416.31
2022-12-31T03:12:48.913Z,96403.78
2022-12-31T03:15:27.238Z,96418.84
2022-12-31T03:18:12.071Z,96416.34
2022-12-31T03:21:03.082Z,96419.38
2022-12-31T03:23:35.391Z,96426.91
2022-12-31T03:26:04.047Z,96428.56
2022-12-31T03:28:31.025Z,96433.56
2022-12-31T03:31:01.392Z,96425.50
2022-12-31T03:33:33.619Z,96422.72
2022-12-31T03:36:04.615Z,96430.25
2022-12-31T03:38:31.288Z,96445.81
2022-12-31T03:40:57.892Z,96431.38
2022-12-31T03:43:25.455Z,96424.25
2022-12-31T03:45:53.460Z,96436.94
2022-12-31T03:48:22.725Z,96439.56
2022-12-31T03:50:49.854Z,96443.06
2022-12-31T03:53:17.301Z,96451.47
2022-12-31T03:55:43.948Z,96455.38
2022-12-31T03:58:10.552Z,96440.03
2022-12-31T04:00:37.123Z,96448.28
2022-12-31T04:03:03.812Z,96454.41
2022-12-31T04:05:30.421Z,96460.69
2022-12-31T04:07:57.002Z,96465.13
2022-12-31T04:10:23.631Z,96462.31
2022-12-31T04:12:50.254Z,96464.97
2022-12-31T04:15:19.772Z,96453.81
2022-12-31T04:17:47.164Z,96466.09
2022-12-31T04:20:14.889Z,96480.84
2022-12-31T04:22:41.880Z,96463.72
2022-12-31T04:25:12.959Z,96464.00
2022-12-31T04:27:41.389Z,96450.34
2022-12-31T04:30:10.277Z,96460.69
2022-12-31T04:32:36.901Z,96460.53
2022-12-31T04:35:03.736Z,96476.72
2022-12-31T04:37:30.526Z,96468.91
2022-12-31T04:40:03.515Z,96481.28
2022-12-31T04:42:32.307Z,96474.91
2022-12-31T04:44:58.908Z,96481.88
2022-12-31T04:47:25.498Z,96485.34
2022-12-31T04:49:52.081Z,96492.06
2022-12-31T04:52:18.671Z,96491.63
2022-12-31T04:54:45.211Z,96483.25
2022-12-31T04:57:11.780Z,96491.34
2022-12-31T04:59:39.666Z,96503.91
2022-12-31T05:02:06.536Z,96487.66
2022-12-31T05:04:33.393Z,96499.19
2022-12-31T05:06:59.977Z,96498.78
2022-12-31T05:09:28.322Z,96499.09
2022-12-31T05:11:55.247Z,96500.91
2022-12-31T05:14:21.924Z,96495.72
2022-12-31T05:16:48.532Z,96521.78
2022-12-31T05:19:15.399Z,96514.38
2022-12-31T05:21:41.976Z,96517.19
2022-12-31T05:24:08.637Z,96528.63
2022-12-31T05:26:35.417Z,96519.84
2022-12-31T05:29:02.134Z,96522.50
2022-12-31T05:31:28.750Z,96533.53
2022-12-31T05:33:55.305Z,96521.66
2022-12-31T05:36:21.933Z,96515.38
2022-12-31T05:38:48.555Z,96524.06
2022-12-31T05:41:15.139Z,96525.72
2022-12-31T05:43:41.729Z,96541.34
2022-12-31T05:46:08.606Z,96542.16
2022-12-31T05:48:35.239Z,96545.94
2022-12-31T05:51:01.852Z,96549.44
2022-12-31T05:53:28.460Z,96546.38
2022-12-31T05:55:55.126Z,96540.34
2022-12-31T05:58:21.719Z,96550.25
2022-12-31T06:00:48.325Z,96549.03
2022-12-31T06:03:15.089Z,96562.13
2022-12-31T06:05:43.127Z,96548.34
2022-12-31T06:08:11.412Z,96556.16
2022-12-31T06:10:39.493Z,96563.38
2022-12-31T06:13:06.523Z,96562.41
2022-12-31T06:15:39.312Z,96575.38
2022-12-31T06:18:06.663Z,96565.03
2022-12-31T06:20:33.692Z,96567.28
2022-12-31T06:23:00.303Z,96572.06
2022-12-31T06:25:27.141Z,96567.59
2022-12-31T06:27:53.745Z,96563.97
2022-12-31T06:30:20.330Z,96567.59
2022-12-31T06:32:47.126Z,96560.75
2022-12-31T06:35:14.300Z,96564.94
2022-12-31T06:37:40.862Z,96576.50
2022-12-31T06:40:08.165Z,96582.66
2022-12-31T06:42:34.751Z,96579.56
2022-12-31T06:45:01.408Z,96595.06
2022-12-31T06:47:28.810Z,96602.34
2022-12-31T06:49:55.411Z,96591.72
2022-12-31T06:52:22.353Z,96571.59
2022-12-31T06:54:49.212Z,96576.66
2022-12-31T06:57:16.163Z,96579.84
2022-12-31T06:59:44.780Z,96574.25
2022-12-31T07:02:29.991Z,96579.44
2022-12-31T07:05:15.014Z,96587.25
2022-12-31T07:07:54.353Z,96597.19
2022-12-31T07:10:29.656Z,96584.31
2022-12-31T07:13:11.874Z,96573.03
2022-12-31T07:15:53.594Z,96595.22
2022-12-31T07:18:42.034Z,96599.53
2022-12-31T07:21:33.183Z,96603.72
2022-12-31T07:24:00.033Z,96594.09
2022-12-31T07:26:56.921Z,96609.00
2022-12-31T07:29:32.747Z,96609.00
2022-12-31T07:32:23.748Z,96602.72
2022-12-31T07:35:05.649Z,96605.81
2022-12-31T07:37:42.508Z,96603.28
2022-12-31T07:40:29.628Z,96623.25
2022-12-31T07:43:10.300Z,96616.13
2022-12-31T07:45:47.704Z,96626.31
2022-12-31T07:48:23.150Z,96618.94
2022-12-31T07:50:51.011Z,96630.53
2022-12-31T07:53:17.874Z,96638.19
2022-12-31T07:55:44.561Z,96646.81
2022-12-31T07:58:38.017Z,96654.38
2022-12-31T08:01:08.686Z,96646.69
2022-12-31T08:04:07.327Z,96647.53
2022-12-31T08:06:56.621Z,96656.06
2022-12-31T08:09:36.617Z,96649.63
2022-12-31T08:12:03.965Z,96652.81
2022-12-31T08:14:30.997Z,96641.81
2022-12-31T08:16:57.925Z,96634.00
2022-12-31T08:19:25.886Z,96639.47
2022-12-31T08:22:06.926Z,96636.66
2022-12-31T08:24:50.116Z,96626.44
2022-12-31T08:27:32.057Z,96648.25
2022-12-31T08:30:02.815Z,96654.78
2022-12-31T08:33:08.477Z,96655.47
2022-12-31T08:35:35.016Z,96675.31
2022-12-31T08:38:07.760Z,96662.75
2022-12-31T08:41:05.276Z,96676.00
2022-12-31T08:44:05.489Z,96671.28
2022-12-31T08:46:47.094Z,96676.84
2022-12-31T08:49:14.901Z,96683.41
2022-12-31T08:51:42.244Z,96691.53
2022-12-31T08:54:11.194Z,96695.41
2022-12-31T08:56:48.816Z,96707.72
2022-12-31T08:59:46.005Z,96704.09
2022-12-31T09:02:24.720Z,96702.28
2022-12-31T09:05:28.415Z,96702.81
2022-12-31T09:08:10.163Z,96700.03
2022-12-31T09:11:13.550Z,96701.84
2022-12-31T09:14:04.823Z,96698.22
2022-12-31T09:16:59.198Z,96708.28
2022-12-31T09:19:25.999Z,96709.56
2022-12-31T09:21:52.897Z,96710.94
2022-12-31T09:24:19.714Z,96703.81
2022-12-31T09:27:27.752Z,96713.22
2022-12-31T09:30:04.467Z,96699.94
2022-12-31T09:33:00.830Z,96704.97
2022-12-31T09:35:58.368Z,96727.03
2022-12-31T09:38:31.039Z,96732.91
2022-12-31T09:41:24.844Z,96718.06
2022-12-31T09:44:21.739Z,96745.16
2022-12-31T09:47:13.099Z,96738.34
2022-12-31T09:49:54.649Z,96738.50
2022-12-31T09:52:47.369Z,96733.44
2022-12-31T09:55:30.337Z,96746.72
2022-12-31T09:58:06.340Z,96747.97
2022-12-31T10:01:11.087Z,96747.00
2022-12-31T10:04:33.286Z,96746.59
2022-12-31T10:07:05.013Z,96744.47
2022-12-31T10:09:49.955Z,96753.53
2022-12-31T10:12:25.526Z,96749.34
2022-12-31T10:15:19.691Z,96761.91
2022-12-31T10:18:26.217Z,96749.06
2022-12-31T10:21:26.955Z,96745.03
2022-12-31T10:24:24.254Z,96757.47
2022-12-31T10:27:32.733Z,96757.09
2022-12-31T10:30:13.368Z,96744.91
2022-12-31T10:33:01.452Z,96759.28
2022-12-31T10:35:36.407Z,96755.22
2022-12-31T10:38:32.165Z,96756.38
2022-12-31T10:41:23.508Z,96760.00
2022-12-31T10:44:20.675Z,96760.00
2022-12-31T10:47:25.836Z,96766.41
2022-12-31T10:50:07.292Z,96777.59
2022-12-31T10:52:58.471Z,96772.84
2022-12-31T10:55:51.470Z,96766.28
2022-12-31T10:58:45.381Z,96772.81
2022-12-31T11:01:30.592Z,96780.94
2022-12-31T11:04:19.431Z,96780.50
2022-12-31T11:07:25.220Z,96776.28
2022-12-31T11:10:09.994Z,96775.94
2022-12-31T11:12:57.584Z,96774.13
2022-12-31T11:15:51.796Z,96779.13
2022-12-31T11:18:31.350Z,96768.50
2022-12-31T11:21:06.569Z,96770.63
2022-12-31T11:24:11.945Z,96766.16
2022-12-31T11:27:10.116Z,96762.59
2022-12-31T11:29:55.895Z,96765.94
2022-12-31T11:32:37.405Z,96773.13
2022-12-31T11:35:22.634Z,96783.66
2022-12-31T11:38:02.251Z,96782.34
2022-12-31T11:41:13.392Z,96782.47
2022-12-31T11:43:56.708Z,96770.28
2022-12-31T11:46:58.939Z,96763.97
2022-12-31T11:50:04.558Z,96782.84
2022-12-31T11:52:49.941Z,96787.22
2022-12-31T11:55:38.856Z,96784.72
2022-12-31T11:58:16.539Z,96778.94
2022-12-31T12:00:56.598Z,96781.59
2022-12-31T12:03:24.603Z,96760.63
2022-12-31T12:05:51.281Z,96778.16
2022-12-31T12:08:17.970Z,96778.16
2022-12-31T12:10:47.941Z,96767.78
2022-12-31T12:13:21.822Z,96755.78
2022-12-31T12:15:51.641Z,96744.53
2022-12-31T12:18:42.339Z,96749.09
2022-12-31T12:21:19.986Z,96737.88
2022-12-31T12:24:20.054Z,96730.38
2022-12-31T12:26:46.669Z,96701.19
2022-12-31T12:29:15.314Z,96701.78
2022-12-31T12:31:42.649Z,96689.69
2022-12-31T12:34:25.876Z,96705.91
2022-12-31T12:36:53.794Z,96700.41
2022-12-31T12:39:23.933Z,96706.66
2022-12-31T12:42:04.239Z,96713.00
2022-12-31T12:44:31.816Z,96717.50
2022-12-31T12:46:59.038Z,96716.16
2022-12-31T12:49:54.203Z,96711.50
2022-12-31T12:52:32.732Z,96716.47
2022-12-31T12:55:24.006Z,96704.66
2022-12-31T12:58:05.895Z,96710.41
2022-12-31T13:00:59.458Z,96709.78
2022-12-31T13:04:23.840Z,96712.78
2022-12-31T13:07:16.840Z,96706.09
2022-12-31T13:10:02.220Z,96705.56
2022-12-31T13:13:22.836Z,96696.78
2022-12-31T13:15:56.494Z,96701.09
2022-12-31T13:18:47.195Z,96697.50
2022-12-31T13:21:28.925Z,96695.34
2022-12-31T13:24:07.821Z,96694.66
2022-12-31T13:26:55.197Z,96710.72
2022-12-31T13:29:27.655Z,96724.00
2022-12-31T13:31:56.553Z,96728.22
2022-12-31T13:34:31.767Z,96753.53
2022-12-31T13:37:05.628Z,96738.75
2022-12-31T13:39:39.691Z,96734.13
2022-12-31T13:42:18.266Z,96732.84
2022-12-31T13:44:44.775Z,96740.69
2022-12-31T13:47:17.840Z,96733.03
2022-12-31T13:49:50.093Z,96735.13
2022-12-31T13:52:21.761Z,96734.97
2022-12-31T13:55:09.605Z,96736.25
2022-12-31T13:57:38.881Z,96733.56
2022-12-31T14:00:15.093Z,96743.75
2022-12-31T14:02:48.288Z,96749.75
2022-12-31T14:05:24.627Z,96737.59
2022-12-31T14:07:54.758Z,96740.56
2022-12-31T14:10:42.699Z,96748.06
2022-12-31T14:13:42.106Z,96733.00
2022-12-31T14:16:24.327Z,96729.50
2022-12-31T14:19:01.744Z,96732.00
2022-12-31T14:22:03.767Z,96732.84
2022-12-31T14:24:49.930Z,96731.00
2022-12-31T14:27:20.567Z,96729.34
2022-12-31T14:29:53.916Z,96723.19
2022-12-31T14:32:43.056Z,96710.47
2022-12-31T14:35:32.925Z,96714.09
2022-12-31T14:38:05.804Z,96716.28
2022-12-31T14:41:09.993Z,96718.25
2022-12-31T14:43:55.637Z,96717.72
2022-12-31T14:46:52.133Z,96724.38
2022-12-31T14:49:58.852Z,96719.81
2022-12-31T14:52:35.908Z,96728.00
2022-12-31T14:55:22.884Z,96722.31
2022-12-31T15:00:39.045Z,96734.66
2022-12-31T15:03:23.518Z,96736.56
2022-12-31T15:06:07.345Z,96731.50
2022-12-31T15:08:33.911Z,96729.81
2022-12-31T15:11:32.473Z,96739.28
2022-12-31T15:14:22.069Z,96764.63
2022-12-31T15:17:03.459Z,96756.31
2022-12-31T15:19:54.662Z,96758.47
2022-12-31T15:22:37.607Z,96759.78
2022-12-31T15:25:27.199Z,96758.22
2022-12-31T15:27:55.534Z,96763.88
2022-12-31T15:30:46.205Z,96772.09
2022-12-31T15:33:25.439Z,96770.28
2022-12-31T15:35:55.195Z,96777.88
2022-12-31T15:38:34.718Z,96761.88
2022-12-31T15:41:32.883Z,96766.38
2022-12-31T15:44:15.869Z,96778.09
2022-12-31T15:46:44.200Z,96776.28
2022-12-31T15:49:19.638Z,96773.44
2022-12-31T15:52:13.859Z,96770.19
2022-12-31T15:54:48.378Z,96773.63
2022-12-31T15:57:33.432Z,96776.75
2022-12-31T16:00:05.198Z,96775.31
2022-12-31T16:02:33.344Z,96780.47
2022-12-31T16:05:01.349Z,96776.03
2022-12-31T16:07:29.293Z,96771.94
2022-12-31T16:09:59.496Z,96776.59
2022-12-31T16:12:33.565Z,96768.19
2022-12-31T16:15:02.470Z,96771.31
2022-12-31T16:17:31.874Z,96769.88
2022-12-31T16:20:00.619Z,96772.09
2022-12-31T16:22:36.274Z,96776.22
2022-12-31T16:27:54.424Z,96776.16
2022-12-31T16:30:28.318Z,96777.47
2022-12-31T16:33:01.332Z,96786.03
2022-12-31T16:35:33.304Z,96777.44
2022-12-31T16:38:24.507Z,96776.16
2022-12-31T16:41:03.224Z,96772.78
2022-12-31T16:43:40.018Z,96765.63
2022-12-31T16:46:26.216Z,96763.47
2022-12-31T16:49:00.113Z,96776.50
2022-12-31T16:51:33.541Z,96772.44
2022-12-31T16:54:02.597Z,96764.88
2022-12-31T16:56:37.849Z,96776.78
2022-12-31T16:59:34.868Z,96785.31
2022-12-31T17:02:12.182Z,96779.63
2022-12-31T17:04:45.177Z,96770.22
2022-12-31T17:07:39.180Z,96779.72
2022-12-31T17:10:09.487Z,96775.41
2022-12-31T17:13:17.387Z,96767.59
2022-12-31T17:15:40.745Z,96779.09
2022-12-31T17:18:11.861Z,96773.56
2022-12-31T17:20:39.343Z,96786.88
2022-12-31T17:23:09.116Z,96775.69
2022-12-31T17:25:39.721Z,96784.22
2022-12-31T17:28:24.819Z,96779.75
2022-12-31T17:30:52.166Z,96784.34
2022-12-31T17:33:21.798Z,96773.56
2022-12-31T17:35:54.416Z,96773.44
2022-12-31T17:38:21.641Z,96783.38
2022-12-31T17:40:56.034Z,96790.69
2022-12-31T17:43:25.758Z,96796.34
2022-12-31T17:45:55.383Z,96787.00
2022-12-31T17:48:25.165Z,96800.94
2022-12-31T17:50:57.846Z,96787.38
2022-12-31T17:53:25.652Z,96800.66
2022-12-31T17:55:59.941Z,96810.91
2022-12-31T17:58:37.912Z,96800.66
2022-12-31T18:01:07.497Z,96798.53
2022-12-31T18:03:35.707Z,96799.06
2022-12-31T18:06:03.183Z,96790.84
2022-12-31T18:08:30.992Z,96800.72
2022-12-31T18:10:59.137Z,96804.78
2022-12-31T18:13:29.289Z,96801.69
2022-12-31T18:15:57.074Z,96801.44
2022-12-31T18:18:27.926Z,96799.84
2022-12-31T18:20:59.084Z,96799.41
2022-12-31T18:23:42.270Z,96793.63
2022-12-31T18:26:14.814Z,96791.38
2022-12-31T18:28:42.878Z,96799.13
2022-12-31T18:31:17.134Z,96797.13
2022-12-31T18:33:45.281Z,96808.94
2022-12-31T18:36:14.772Z,96812.72
2022-12-31T18:38:42.606Z,96806.59
2022-12-31T18:41:20.048Z,96803.44
2022-12-31T18:43:48.267Z,96801.44
2022-12-31T18:46:24.362Z,96808.53
2022-12-31T18:48:52.307Z,96811.06
2022-12-31T18:51:29.298Z,96817.44
2022-12-31T18:53:59.144Z,96815.97
2022-12-31T18:56:27.339Z,96807.50
2022-12-31T18:58:55.244Z,96800.22
2022-12-31T19:01:35.354Z,96809.59
2022-12-31T19:04:27.488Z,96804.78
2022-12-31T19:06:56.896Z,96809.03
2022-12-31T19:09:44.783Z,96784.16
2022-12-31T19:12:15.607Z,96804.97
2022-12-31T19:14:43.345Z,96798.25
2022-12-31T19:19:37.110Z,96798.59
2022-12-31T19:22:04.610Z,96807.34
2022-12-31T19:24:32.000Z,96804.00
2022-12-31T19:27:01.318Z,96810.63
2022-12-31T19:29:28.849Z,96807.34
2022-12-31T19:31:58.353Z,96818.34
2022-12-31T19:34:25.913Z,96820.25
2022-12-31T19:36:53.220Z,96806.47
2022-12-31T19:39:21.859Z,96808.53
2022-12-31T19:41:58.187Z,96815.31
2022-12-31T19:44:26.401Z,96829.03
2022-12-31T19:46:54.054Z,96833.38
2022-12-31T19:49:21.706Z,96815.34
2022-12-31T19:51:49.379Z,96824.75
2022-12-31T19:54:16.576Z,96820.19
2022-12-31T19:56:44.027Z,96828.56
2022-12-31T19:59:12.335Z,96828.88
2022-12-31T20:01:39.988Z,96825.16
2022-12-31T20:04:07.419Z,96833.84
2022-12-31T20:06:34.942Z,96831.16
2022-12-31T20:09:03.341Z,96830.06
2022-12-31T20:11:31.132Z,96825.75
2022-12-31T20:13:59.075Z,96821.56
2022-12-31T20:16:32.090Z,96831.75
2022-12-31T20:18:59.508Z,96823.81
2022-12-31T20:21:29.586Z,96824.50
2022-12-31T20:23:57.155Z,96822.59
2022-12-31T20:26:25.780Z,96827.16
2022-12-31T20:28:53.847Z,96826.81
2022-12-31T20:31:24.878Z,96836.31
2022-12-31T20:33:54.529Z,96832.44
2022-12-31T20:36:22.816Z,96839.75
2022-12-31T20:38:50.386Z,96838.41
2022-12-31T20:41:22.815Z,96837.22
2022-12-31T20:43:50.543Z,96842.13
2022-12-31T20:46:23.464Z,96852.78
2022-12-31T20:48:52.767Z,96852.78
2022-12-31T20:51:21.753Z,96854.09
2022-12-31T20:53:57.308Z,96864.53
2022-12-31T20:56:26.089Z,96861.06
2022-12-31T20:58:53.723Z,96854.50
2022-12-31T21:01:22.099Z,96849.53
2022-12-31T21:04:06.921Z,96851.91
2022-12-31T21:06:35.637Z,96849.16
2022-12-31T21:09:05.107Z,96844.50
2022-12-31T21:11:51.236Z,96857.81
2022-12-31T21:14:19.755Z,96856.88
2022-12-31T21:16:48.468Z,96857.47
2022-12-31T21:19:15.892Z,96858.19
2022-12-31T21:21:43.481Z,96870.91
2022-12-31T21:24:11.353Z,96871.84
2022-12-31T21:26:38.646Z,96878.25
2022-12-31T21:29:05.413Z,96887.97
2022-12-31T21:31:32.754Z,96879.41
2022-12-31T21:34:01.575Z,96882.69
2022-12-31T21:36:29.259Z,96894.28
2022-12-31T21:38:56.803Z,96888.84
2022-12-31T21:41:42.734Z,96894.66
2022-12-31T21:44:10.155Z,96908.06
2022-12-31T21:46:37.743Z,96908.06
2022-12-31T21:49:05.342Z,96905.31
2022-12-31T21:51:32.655Z,96903.72
2022-12-31T21:54:00.441Z,96905.31
2022-12-31T21:56:27.813Z,96913.00
2022-12-31T21:59:17.800Z,96906.44
2022-12-31T22:02:03.664Z,96909.44
2022-12-31T22:07:18.539Z,96912.03
2022-12-31T22:09:45.771Z,96913.25
2022-12-31T22:12:13.089Z,96910.94
2022-12-31T22:15:15.015Z,96921.19
2022-12-31T22:17:28.939Z,96923.06
2022-12-31T22:22:42.425Z,96923.84
2022-12-31T22:25:09.459Z,96919.72
2022-12-31T22:27:36.046Z,96923.69
2022-12-31T22:30:02.722Z,96929.41
2022-12-31T22:32:29.975Z,96923.00
2022-12-31T22:34:57.592Z,96931.47
2022-12-31T22:37:55.792Z,96934.88
2022-12-31T22:40:12.706Z,96934.25
2022-12-31T22:42:41.384Z,96927.53
2022-12-31T22:45:11.320Z,96941.69
2022-12-31T22:47:39.066Z,96937.19
2022-12-31T22:50:09.775Z,96947.63
2022-12-31T22:52:37.240Z,96953.22
2022-12-31T22:55:06.219Z,96953.94
2022-12-31T22:57:33.308Z,96952.16
2022-12-31T23:00:00.220Z,96941.09
2022-12-31T23:02:27.067Z,96939.91
2022-12-31T23:04:53.776Z,96944.53
2022-12-31T23:07:40.453Z,96943.66
2022-12-31T23:10:26.048Z,96945.19
2022-12-31T23:12:52.614Z,96932.75
2022-12-31T23:15:37.768Z,96942.88
2022-12-31T23:18:22.988Z,96946.03
2022-12-31T23:21:09.282Z,96944.19
2022-12-31T23:23:35.917Z,96938.78
2022-12-31T23:26:03.100Z,96941.53
2022-12-31T23:28:31.162Z,96933.94
2022-12-31T23:30:58.960Z,96932.88
2022-12-31T23:33:27.134Z,96932.25
2022-12-31T23:36:07.294Z,96938.06
2022-12-31T23:38:34.884Z,96935.56
2022-12-31T23:41:14.473Z,96948.09
2022-12-31T23:43:41.873Z,96948.44
2022-12-31T23:46:09.638Z,96949.41
2022-12-31T23:48:37.122Z,96946.22
2022-12-31T23:51:05.156Z,96935.25
2022-12-31T23:53:32.832Z,96929.88
2022-12-31T23:56:13.871Z,96929.38
2022-12-31T23:58:47.439Z,96929.91
